sensor_id;sensor_type;location;lat;lon;timestamp;pressure;altitude;pressure_sealevel;temperature;humidity
22964;BME280;11648;49.306;6.934;2023-05-22T00:01:49;98082.47;;;22.01;60.00
22964;BME280;11648;49.306;6.934;2023-05-22T00:04:17;98076.44;;;21.97;60.08
22964;BME280;11648;49.306;6.934;2023-05-22T00:06:47;98076.34;;;21.99;60.05
22964;BME280;11648;49.306;6.934;2023-05-22T00:09:14;98078.19;;;21.98;60.12
22964;BME280;11648;49.306;6.934;2023-05-22T00:11:41;98081.03;;;21.95;60.24
22964;BME280;11648;49.306;6.934;2023-05-22T00:14:08;98077.84;;;21.89;60.15
22964;BME280;11648;49.306;6.934;2023-05-22T00:16:35;98076.09;;;21.88;60.79
22964;BME280;11648;49.306;6.934;2023-05-22T00:19:02;98073.63;;;21.85;60.21
22964;BME280;11648;49.306;6.934;2023-05-22T00:21:29;98074.59;;;21.84;60.22
22964;BME280;11648;49.306;6.934;2023-05-22T00:24:00;98077.16;;;21.85;60.39
22964;BME280;11648;49.306;6.934;2023-05-22T00:26:27;98075.06;;;21.76;60.62
22964;BME280;11648;49.306;6.934;2023-05-22T00:28:54;98073.34;;;21.61;60.86
22964;BME280;11648;49.306;6.934;2023-05-22T00:31:22;98069.88;;;21.59;61.24
22964;BME280;11648;49.306;6.934;2023-05-22T00:33:49;98068.66;;;21.64;60.90
22964;BME280;11648;49.306;6.934;2023-05-22T00:36:16;98068.16;;;21.58;61.40
22964;BME280;11648;49.306;6.934;2023-05-22T00:38:44;98062.91;;;21.56;61.74
22964;BME280;11648;49.306;6.934;2023-05-22T00:41:11;98069.88;;;21.59;61.34
22964;BME280;11648;49.306;6.934;2023-05-22T00:43:38;98061.16;;;21.55;61.34
22964;BME280;11648;49.306;6.934;2023-05-22T00:46:05;98061.56;;;21.49;61.80
22964;BME280;11648;49.306;6.934;2023-05-22T00:48:35;98064.34;;;21.48;62.09
22964;BME280;11648;49.306;6.934;2023-05-22T00:51:02;98068.44;;;21.53;62.05
22964;BME280;11648;49.306;6.934;2023-05-22T00:53:29;98064.34;;;21.48;62.22
22964;BME280;11648;49.306;6.934;2023-05-22T00:55:57;98063.75;;;21.57;61.96
22964;BME280;11648;49.306;6.934;2023-05-22T00:58:25;98058.88;;;21.63;61.84
22964;BME280;11648;49.306;6.934;2023-05-22T01:00:53;98065.69;;;21.69;61.42
22964;BME280;11648;49.306;6.934;2023-05-22T01:03:21;98063.31;;;21.79;61.05
22964;BME280;11648;49.306;6.934;2023-05-22T01:05:53;98058.81;;;21.79;61.01
22964;BME280;11648;49.306;6.934;2023-05-22T01:08:20;98059.94;;;21.75;60.91
22964;BME280;11648;49.306;6.934;2023-05-22T01:10:52;98057.75;;;21.67;60.43
22964;BME280;11648;49.306;6.934;2023-05-22T01:16:04;98062.34;;;21.51;61.01
22964;BME280;11648;49.306;6.934;2023-05-22T01:18:45;98055.72;;;21.43;60.88
22964;BME280;11648;49.306;6.934;2023-05-22T01:24:13;98047.75;;;21.27;61.20
22964;BME280;11648;49.306;6.934;2023-05-22T01:27:07;98055.97;;;21.24;60.91
22964;BME280;11648;49.306;6.934;2023-05-22T01:32:46;98048.75;;;21.10;60.63
22964;BME280;11648;49.306;6.934;2023-05-22T01:35:16;98051.00;;;21.02;61.11
22964;BME280;11648;49.306;6.934;2023-05-22T01:37:44;98051.44;;;20.95;61.36
22964;BME280;11648;49.306;6.934;2023-05-22T01:40:12;98057.78;;;20.94;61.42
22964;BME280;11648;49.306;6.934;2023-05-22T01:42:39;98055.44;;;20.88;61.55
22964;BME280;11648;49.306;6.934;2023-05-22T01:45:08;98058.41;;;20.83;61.63
22964;BME280;11648;49.306;6.934;2023-05-22T01:47:36;98063.56;;;20.86;61.56
22964;BME280;11648;49.306;6.934;2023-05-22T01:50:04;98060.09;;;20.84;61.71
22964;BME280;11648;49.306;6.934;2023-05-22T01:55:23;98065.75;;;20.80;62.72
22964;BME280;11648;49.306;6.934;2023-05-22T01:58:15;98058.47;;;20.82;62.88
22964;BME280;11648;49.306;6.934;2023-05-22T02:00:48;98058.72;;;20.77;63.45
22964;BME280;11648;49.306;6.934;2023-05-22T02:03:21;98053.50;;;20.76;63.69
22964;BME280;11648;49.306;6.934;2023-05-22T02:05:53;98061.78;;;20.55;65.07
22964;BME280;11648;49.306;6.934;2023-05-22T02:08:21;98057.41;;;20.54;65.03
22964;BME280;11648;49.306;6.934;2023-05-22T02:10:48;98056.38;;;20.57;65.12
22964;BME280;11648;49.306;6.934;2023-05-22T02:13:20;98047.91;;;20.64;64.51
22964;BME280;11648;49.306;6.934;2023-05-22T02:15:47;98058.06;;;20.74;64.40
22964;BME280;11648;49.306;6.934;2023-05-22T02:18:14;98057.09;;;20.75;64.77
22964;BME280;11648;49.306;6.934;2023-05-22T02:20:42;98055.13;;;20.62;65.85
22964;BME280;11648;49.306;6.934;2023-05-22T02:23:09;98050.66;;;20.63;65.88
22964;BME280;11648;49.306;6.934;2023-05-22T02:25:36;98055.75;;;20.67;65.80
22964;BME280;11648;49.306;6.934;2023-05-22T02:28:03;98053.81;;;20.69;65.01
22964;BME280;11648;49.306;6.934;2023-05-22T02:30:29;98055.13;;;20.62;63.62
22964;BME280;11648;49.306;6.934;2023-05-22T02:32:57;98057.81;;;20.62;64.02
22964;BME280;11648;49.306;6.934;2023-05-22T02:35:25;98056.59;;;20.68;63.72
22964;BME280;11648;49.306;6.934;2023-05-22T02:37:52;98058.69;;;20.63;63.59
22964;BME280;11648;49.306;6.934;2023-05-22T02:40:19;98056.44;;;20.55;63.39
22964;BME280;11648;49.306;6.934;2023-05-22T02:42:45;98056.63;;;20.52;62.84
22964;BME280;11648;49.306;6.934;2023-05-22T02:45:12;98059.41;;;20.51;62.91
22964;BME280;11648;49.306;6.934;2023-05-22T02:47:40;98067.00;;;20.43;62.50
22964;BME280;11648;49.306;6.934;2023-05-22T02:50:07;98065.69;;;20.34;62.55
22964;BME280;11648;49.306;6.934;2023-05-22T02:52:34;98066.94;;;20.27;62.99
22964;BME280;11648;49.306;6.934;2023-05-22T02:55:03;98066.91;;;20.29;63.44
22964;BME280;11648;49.306;6.934;2023-05-22T02:57:30;98067.88;;;20.26;63.80
22964;BME280;11648;49.306;6.934;2023-05-22T02:59:57;98067.78;;;20.29;63.50
22964;BME280;11648;49.306;6.934;2023-05-22T03:02:24;98066.19;;;20.25;63.32
22964;BME280;11648;49.306;6.934;2023-05-22T03:04:54;98063.81;;;20.19;63.36
22964;BME280;11648;49.306;6.934;2023-05-22T03:07:21;98064.63;;;20.21;64.13
22964;BME280;11648;49.306;6.934;2023-05-22T03:09:47;98071.94;;;20.17;64.53
22964;BME280;11648;49.306;6.934;2023-05-22T03:12:14;98069.88;;;20.07;65.27
22964;BME280;11648;49.306;6.934;2023-05-22T03:14:41;98071.00;;;20.03;65.91
22964;BME280;11648;49.306;6.934;2023-05-22T03:17:08;98066.69;;;20.00;65.67
22964;BME280;11648;49.306;6.934;2023-05-22T03:19:34;98064.00;;;20.00;66.15
22964;BME280;11648;49.306;6.934;2023-05-22T03:22:01;98064.53;;;20.07;66.00
22964;BME280;11648;49.306;6.934;2023-05-22T03:24:28;98064.84;;;20.01;66.75
22964;BME280;11648;49.306;6.934;2023-05-22T03:26:56;98070.63;;;20.09;66.05
22964;BME280;11648;49.306;6.934;2023-05-22T03:29:32;98069.78;;;20.08;65.44
22964;BME280;11648;49.306;6.934;2023-05-22T03:31:58;98064.88;;;20.16;65.58
22964;BME280;11648;49.306;6.934;2023-05-22T03:34:25;98064.63;;;20.21;65.79
22964;BME280;11648;49.306;6.934;2023-05-22T03:36:53;98063.50;;;20.25;65.74
22964;BME280;11648;49.306;6.934;2023-05-22T03:39:20;98067.03;;;20.26;65.89
22964;BME280;11648;49.306;6.934;2023-05-22T03:42:07;98063.50;;;20.25;65.64
22964;BME280;11648;49.306;6.934;2023-05-22T03:44:33;98065.31;;;20.25;65.35
22964;BME280;11648;49.306;6.934;2023-05-22T03:47:00;98071.00;;;20.18;65.46
22964;BME280;11648;49.306;6.934;2023-05-22T03:49:29;98070.91;;;20.20;65.41
22964;BME280;11648;49.306;6.934;2023-05-22T03:51:56;98064.88;;;20.16;66.16
22964;BME280;11648;49.306;6.934;2023-05-22T03:54:22;98060.22;;;20.20;65.92
22964;BME280;11648;49.306;6.934;2023-05-22T03:56:49;98063.25;;;20.14;65.68
22964;BME280;11648;49.306;6.934;2023-05-22T03:59:17;98065.13;;;20.12;65.58
22964;BME280;11648;49.306;6.934;2023-05-22T04:01:44;98068.16;;;20.21;64.88
22964;BME280;11648;49.306;6.934;2023-05-22T04:04:12;98064.00;;;20.16;64.44
22964;BME280;11648;49.306;6.934;2023-05-22T04:06:39;98066.78;;;20.14;64.36
22964;BME280;11648;49.306;6.934;2023-05-22T04:09:11;98057.66;;;20.18;64.51
22964;BME280;11648;49.306;6.934;2023-05-22T04:11:38;98060.31;;;20.18;64.05
22964;BME280;11648;49.306;6.934;2023-05-22T04:14:05;98073.75;;;20.17;63.95
22964;BME280;11648;49.306;6.934;2023-05-22T04:16:32;98062.72;;;20.23;63.85
22964;BME280;11648;49.306;6.934;2023-05-22T04:18:59;98074.81;;;20.30;64.06
22964;BME280;11648;49.306;6.934;2023-05-22T04:21:30;98072.94;;;20.32;63.75
22964;BME280;11648;49.306;6.934;2023-05-22T04:23:59;98068.28;;;20.36;63.34
22964;BME280;11648;49.306;6.934;2023-05-22T04:26:33;98074.16;;;20.42;63.98
22964;BME280;11648;49.306;6.934;2023-05-22T04:28:59;98072.16;;;20.46;63.72
22964;BME280;11648;49.306;6.934;2023-05-22T04:31:27;98074.16;;;20.42;64.74
22964;BME280;11648;49.306;6.934;2023-05-22T04:33:54;98076.94;;;20.23;65.29
22964;BME280;11648;49.306;6.934;2023-05-22T04:36:21;98077.88;;;20.22;66.03
22964;BME280;11648;49.306;6.934;2023-05-22T04:38:51;98088.44;;;20.26;65.84
22964;BME280;11648;49.306;6.934;2023-05-22T04:41:20;98092.00;;;20.42;65.53
22964;BME280;11648;49.306;6.934;2023-05-22T04:43:52;98084.22;;;20.53;65.15
22964;BME280;11648;49.306;6.934;2023-05-22T04:46:19;98079.03;;;20.65;64.86
22964;BME280;11648;49.306;6.934;2023-05-22T04:48:46;98081.50;;;20.84;64.31
22964;BME280;11648;49.306;6.934;2023-05-22T04:51:14;98079.00;;;20.97;63.83
22964;BME280;11648;49.306;6.934;2023-05-22T04:53:41;98072.59;;;21.15;63.29
22964;BME280;11648;49.306;6.934;2023-05-22T04:56:08;98079.88;;;21.27;63.03
22964;BME280;11648;49.306;6.934;2023-05-22T04:58:35;98079.22;;;21.38;62.51
22964;BME280;11648;49.306;6.934;2023-05-22T05:01:04;98080.88;;;21.54;62.30
22964;BME280;11648;49.306;6.934;2023-05-22T05:03:32;98080.72;;;21.72;61.23
22964;BME280;11648;49.306;6.934;2023-05-22T05:05:59;98083.19;;;21.89;60.84
22964;BME280;11648;49.306;6.934;2023-05-22T05:08:26;98083.81;;;22.08;61.04
22964;BME280;11648;49.306;6.934;2023-05-22T05:10:53;98088.69;;;22.15;60.66
22964;BME280;11648;49.306;6.934;2023-05-22T05:13:20;98087.88;;;22.42;60.42
22964;BME280;11648;49.306;6.934;2023-05-22T05:15:47;98094.19;;;22.55;60.24
22964;BME280;11648;49.306;6.934;2023-05-22T05:18:14;98094.16;;;22.69;59.38
22964;BME280;11648;49.306;6.934;2023-05-22T05:20:41;98087.88;;;22.83;58.75
22964;BME280;11648;49.306;6.934;2023-05-22T05:23:08;98086.97;;;22.96;57.99
22964;BME280;11648;49.306;6.934;2023-05-22T05:25:36;98090.81;;;23.19;58.25
22964;BME280;11648;49.306;6.934;2023-05-22T05:28:04;98085.22;;;23.49;57.47
22964;BME280;11648;49.306;6.934;2023-05-22T05:30:38;98088.66;;;23.76;56.97
22964;BME280;11648;49.306;6.934;2023-05-22T05:33:26;98090.16;;;24.05;56.24
22964;BME280;11648;49.306;6.934;2023-05-22T05:36:05;98091.56;;;24.24;55.88
22964;BME280;11648;49.306;6.934;2023-05-22T05:38:33;98084.28;;;24.49;55.54
22964;BME280;11648;49.306;6.934;2023-05-22T05:41:00;98085.66;;;24.91;54.38
22964;BME280;11648;49.306;6.934;2023-05-22T05:43:28;98077.50;;;24.93;54.16
22964;BME280;11648;49.306;6.934;2023-05-22T05:46:00;98079.19;;;25.18;54.07
22964;BME280;11648;49.306;6.934;2023-05-22T05:48:27;98080.03;;;25.18;53.94
22964;BME280;11648;49.306;6.934;2023-05-22T05:50:55;98084.81;;;25.49;53.61
22964;BME280;11648;49.306;6.934;2023-05-22T05:53:21;98075.72;;;25.85;52.86
22964;BME280;11648;49.306;6.934;2023-05-22T05:55:54;98077.56;;;25.96;51.93
22964;BME280;11648;49.306;6.934;2023-05-22T05:58:21;98074.88;;;26.40;52.03
22964;BME280;11648;49.306;6.934;2023-05-22T06:01:25;98084.47;;;26.22;51.29
22964;BME280;11648;49.306;6.934;2023-05-22T06:03:53;98081.34;;;26.04;51.65
22964;BME280;11648;49.306;6.934;2023-05-22T06:06:25;98087.00;;;26.13;52.03
22964;BME280;11648;49.306;6.934;2023-05-22T06:09:18;98086.41;;;26.20;51.88
22964;BME280;11648;49.306;6.934;2023-05-22T06:12:10;98087.13;;;26.00;52.46
22964;BME280;11648;49.306;6.934;2023-05-22T06:14:41;98089.59;;;26.14;52.12
22964;BME280;11648;49.306;6.934;2023-05-22T06:17:08;98090.72;;;26.34;51.90
22964;BME280;11648;49.306;6.934;2023-05-22T06:19:37;98102.25;;;26.36;52.92
22964;BME280;11648;49.306;6.934;2023-05-22T06:22:05;98097.22;;;26.31;53.16
22964;BME280;11648;49.306;6.934;2023-05-22T06:24:32;98091.56;;;26.45;52.23
22964;BME280;11648;49.306;6.934;2023-05-22T06:27:04;98092.84;;;26.73;52.29
22964;BME280;11648;49.306;6.934;2023-05-22T06:29:32;98090.66;;;26.78;51.09
22964;BME280;11648;49.306;6.934;2023-05-22T06:31:59;98093.00;;;26.72;51.92
22964;BME280;11648;49.306;6.934;2023-05-22T06:34:28;98089.69;;;26.79;52.16
22964;BME280;11648;49.306;6.934;2023-05-22T06:36:57;98103.31;;;26.56;53.01
22964;BME280;11648;49.306;6.934;2023-05-22T06:39:28;98096.41;;;26.74;53.25
22964;BME280;11648;49.306;6.934;2023-05-22T06:42:11;98113.97;;;26.79;53.14
22964;BME280;11648;49.306;6.934;2023-05-22T06:45:06;98110.19;;;26.71;52.17
22964;BME280;11648;49.306;6.934;2023-05-22T06:47:44;98105.66;;;26.60;52.42
22964;BME280;11648;49.306;6.934;2023-05-22T06:50:11;98108.47;;;26.59;52.30
22964;BME280;11648;49.306;6.934;2023-05-22T06:52:37;98111.78;;;26.62;52.72
22964;BME280;11648;49.306;6.934;2023-05-22T06:55:06;98110.28;;;26.69;52.92
22964;BME280;11648;49.306;6.934;2023-05-22T06:57:44;98117.91;;;26.75;52.89
22964;BME280;11648;49.306;6.934;2023-05-22T07:00:11;98110.88;;;26.95;52.38
22964;BME280;11648;49.306;6.934;2023-05-22T07:03:00;98112.72;;;26.94;52.50
22964;BME280;11648;49.306;6.934;2023-05-22T07:05:31;98117.75;;;26.99;53.30
22964;BME280;11648;49.306;6.934;2023-05-22T07:07:59;98116.44;;;26.93;53.38
22964;BME280;11648;49.306;6.934;2023-05-22T07:10:27;98122.69;;;27.37;52.00
22964;BME280;11648;49.306;6.934;2023-05-22T07:12:56;98111.72;;;27.70;50.93
22964;BME280;11648;49.306;6.934;2023-05-22T07:15:23;98111.84;;;27.89;50.19
22964;BME280;11648;49.306;6.934;2023-05-22T07:17:52;98109.72;;;28.14;49.93
22964;BME280;11648;49.306;6.934;2023-05-22T07:20:19;98112.16;;;28.17;49.88
22964;BME280;11648;49.306;6.934;2023-05-22T07:22:59;98112.34;;;28.25;49.99
22964;BME280;11648;49.306;6.934;2023-05-22T07:25:26;98102.00;;;28.39;48.93
22964;BME280;11648;49.306;6.934;2023-05-22T07:27:53;98109.44;;;28.37;50.07
22964;BME280;11648;49.306;6.934;2023-05-22T07:30:22;98111.66;;;28.63;49.07
22964;BME280;11648;49.306;6.934;2023-05-22T07:32:49;98105.19;;;28.84;48.86
22964;BME280;11648;49.306;6.934;2023-05-22T07:35:16;98106.19;;;28.93;48.06
22964;BME280;11648;49.306;6.934;2023-05-22T07:37:43;98100.13;;;29.29;46.83
22964;BME280;11648;49.306;6.934;2023-05-22T07:40:10;98111.69;;;29.31;47.16
22964;BME280;11648;49.306;6.934;2023-05-22T07:42:37;98107.84;;;29.53;46.76
22964;BME280;11648;49.306;6.934;2023-05-22T07:45:06;98113.81;;;29.57;46.40
22964;BME280;11648;49.306;6.934;2023-05-22T07:47:33;98109.72;;;29.53;45.69
22964;BME280;11648;49.306;6.934;2023-05-22T07:50:00;98104.28;;;29.53;45.96
22964;BME280;11648;49.306;6.934;2023-05-22T07:52:31;98107.09;;;29.80;45.59
22964;BME280;11648;49.306;6.934;2023-05-22T07:54:58;98108.97;;;29.89;45.30
22964;BME280;11648;49.306;6.934;2023-05-22T07:57:26;98106.94;;;30.01;45.55
22964;BME280;11648;49.306;6.934;2023-05-22T07:59:58;98108.94;;;30.08;45.75
22964;BME280;11648;49.306;6.934;2023-05-22T08:02:25;98102.38;;;30.48;44.55
22964;BME280;11648;49.306;6.934;2023-05-22T08:04:52;98104.59;;;30.62;43.80
22964;BME280;11648;49.306;6.934;2023-05-22T08:07:19;98095.91;;;30.85;43.16
22964;BME280;11648;49.306;6.934;2023-05-22T08:09:46;98110.91;;;30.62;44.49
22964;BME280;11648;49.306;6.934;2023-05-22T08:12:12;98105.72;;;30.96;43.14
22964;BME280;11648;49.306;6.934;2023-05-22T08:14:39;98109.41;;;30.77;43.21
22964;BME280;11648;49.306;6.934;2023-05-22T08:17:06;98110.78;;;30.54;42.97
22964;BME280;11648;49.306;6.934;2023-05-22T08:19:33;98115.06;;;30.20;44.59
22964;BME280;11648;49.306;6.934;2023-05-22T08:22:00;98116.44;;;30.33;44.17
22964;BME280;11648;49.306;6.934;2023-05-22T08:24:27;98111.84;;;30.44;43.63
22964;BME280;11648;49.306;6.934;2023-05-22T08:26:56;98118.00;;;30.46;43.51
22964;BME280;11648;49.306;6.934;2023-05-22T08:29:27;98115.00;;;30.29;43.97
22964;BME280;11648;49.306;6.934;2023-05-22T08:31:54;98110.91;;;30.62;42.79
22964;BME280;11648;49.306;6.934;2023-05-22T08:34:23;98105.28;;;31.18;42.35
22964;BME280;11648;49.306;6.934;2023-05-22T08:36:50;98106.28;;;32.06;41.74
22964;BME280;11648;49.306;6.934;2023-05-22T08:39:17;98101.50;;;32.59;39.37
22964;BME280;11648;49.306;6.934;2023-05-22T08:41:44;98081.53;;;33.67;37.66
22964;BME280;11648;49.306;6.934;2023-05-22T08:44:12;98078.38;;;34.35;36.14
22964;BME280;11648;49.306;6.934;2023-05-22T08:46:39;98082.44;;;34.47;35.13
22964;BME280;11648;49.306;6.934;2023-05-22T08:49:11;98073.50;;;34.69;34.89
22964;BME280;11648;49.306;6.934;2023-05-22T08:51:40;98059.59;;;35.40;33.15
22964;BME280;11648;49.306;6.934;2023-05-22T08:54:10;98064.97;;;35.94;33.36
22964;BME280;11648;49.306;6.934;2023-05-22T08:56:37;98063.25;;;35.55;32.77
22964;BME280;11648;49.306;6.934;2023-05-22T08:59:19;98064.09;;;35.56;32.62
22964;BME280;11648;49.306;6.934;2023-05-22T09:01:46;98072.91;;;35.43;33.18
22964;BME280;11648;49.306;6.934;2023-05-22T09:04:13;98081.03;;;35.97;33.29
22964;BME280;11648;49.306;6.934;2023-05-22T09:06:41;98073.84;;;36.33;32.27
22964;BME280;11648;49.306;6.934;2023-05-22T09:09:08;98070.81;;;36.13;31.86
22964;BME280;11648;49.306;6.934;2023-05-22T09:11:35;98081.72;;;35.99;32.54
22964;BME280;11648;49.306;6.934;2023-05-22T09:14:07;98081.63;;;36.07;31.07
22964;BME280;11648;49.306;6.934;2023-05-22T09:16:43;98068.50;;;37.20;31.49
22964;BME280;11648;49.306;6.934;2023-05-22T09:19:12;98075.13;;;37.46;31.41
22964;BME280;11648;49.306;6.934;2023-05-22T09:21:40;98069.53;;;37.40;30.42
22964;BME280;11648;49.306;6.934;2023-05-22T09:24:09;98079.75;;;36.74;31.85
22964;BME280;11648;49.306;6.934;2023-05-22T09:26:39;98080.75;;;36.44;32.16
22964;BME280;11648;49.306;6.934;2023-05-22T09:29:07;98083.31;;;35.93;33.15
22964;BME280;11648;49.306;6.934;2023-05-22T09:31:40;98071.91;;;35.67;33.01
22964;BME280;11648;49.306;6.934;2023-05-22T09:34:10;98083.75;;;35.82;32.91
22964;BME280;11648;49.306;6.934;2023-05-22T09:36:40;98073.59;;;35.68;32.78
22964;BME280;11648;49.306;6.934;2023-05-22T09:39:07;98079.72;;;35.47;34.88
22964;BME280;11648;49.306;6.934;2023-05-22T09:41:37;98070.78;;;35.31;33.18
22964;BME280;11648;49.306;6.934;2023-05-22T09:44:14;98076.22;;;35.61;32.44
22964;BME280;11648;49.306;6.934;2023-05-22T09:46:44;98066.69;;;35.49;32.25
22964;BME280;11648;49.306;6.934;2023-05-22T09:49:11;98072.50;;;35.77;32.65
22964;BME280;11648;49.306;6.934;2023-05-22T09:51:44;98070.34;;;36.10;32.16
22964;BME280;11648;49.306;6.934;2023-05-22T09:54:14;98057.41;;;36.33;31.96
22964;BME280;11648;49.306;6.934;2023-05-22T09:56:42;98060.25;;;36.69;31.07
22964;BME280;11648;49.306;6.934;2023-05-22T09:59:11;98047.72;;;36.96;30.08
22964;BME280;11648;49.306;6.934;2023-05-22T10:01:40;98046.34;;;37.21;29.72
22964;BME280;11648;49.306;6.934;2023-05-22T10:04:11;98041.88;;;38.05;28.70
22964;BME280;11648;49.306;6.934;2023-05-22T10:06:41;98048.09;;;37.92;28.77
22964;BME280;11648;49.306;6.934;2023-05-22T10:09:12;98033.69;;;39.47;27.08
22964;BME280;11648;49.306;6.934;2023-05-22T10:11:45;98036.91;;;39.71;27.58
22964;BME280;11648;49.306;6.934;2023-05-22T10:14:13;98032.88;;;40.26;26.47
22964;BME280;11648;49.306;6.934;2023-05-22T10:16:42;98018.84;;;41.42;25.09
22964;BME280;11648;49.306;6.934;2023-05-22T10:19:11;98021.25;;;42.38;23.99
22964;BME280;11648;49.306;6.934;2023-05-22T10:21:40;98016.00;;;41.56;25.29
22964;BME280;11648;49.306;6.934;2023-05-22T10:24:08;98016.31;;;42.40;24.24
22964;BME280;11648;49.306;6.934;2023-05-22T10:26:36;98012.41;;;43.32;23.31
22964;BME280;11648;49.306;6.934;2023-05-22T10:29:11;98009.16;;;43.65;23.50
22964;BME280;11648;49.306;6.934;2023-05-22T10:31:49;98002.34;;;43.49;22.70
22964;BME280;11648;49.306;6.934;2023-05-22T10:34:33;98013.38;;;42.90;22.95
22964;BME280;11648;49.306;6.934;2023-05-22T10:40:09;98003.72;;;43.70;23.34
22964;BME280;11648;49.306;6.934;2023-05-22T10:42:37;98009.78;;;43.78;23.39
22964;BME280;11648;49.306;6.934;2023-05-22T10:45:09;98008.59;;;42.97;23.60
22964;BME280;11648;49.306;6.934;2023-05-22T10:47:36;97994.19;;;43.66;21.94
22964;BME280;11648;49.306;6.934;2023-05-22T10:50:06;97995.34;;;44.11;21.91
22964;BME280;11648;49.306;6.934;2023-05-22T10:52:34;97994.75;;;44.21;21.52
22964;BME280;11648;49.306;6.934;2023-05-22T10:55:05;97990.09;;;44.73;20.73
22964;BME280;11648;49.306;6.934;2023-05-22T10:57:32;97987.56;;;44.71;21.09
22964;BME280;11648;49.306;6.934;2023-05-22T11:00:14;97981.91;;;45.06;21.11
22964;BME280;11648;49.306;6.934;2023-05-22T11:02:44;97988.22;;;45.30;20.71
22964;BME280;11648;49.306;6.934;2023-05-22T11:07:44;97971.91;;;46.17;19.65
22964;BME280;11648;49.306;6.934;2023-05-22T11:10:11;97973.81;;;46.11;19.22
22964;BME280;11648;49.306;6.934;2023-05-22T11:12:37;97977.84;;;45.26;20.25
22964;BME280;11648;49.306;6.934;2023-05-22T11:15:09;97981.03;;;45.62;20.30
22964;BME280;11648;49.306;6.934;2023-05-22T11:17:46;97982.44;;;46.48;19.47
22964;BME280;11648;49.306;6.934;2023-05-22T11:22:59;97963.41;;;46.24;19.61
22964;BME280;11648;49.306;6.934;2023-05-22T11:25:27;97968.31;;;46.98;17.82
22964;BME280;11648;49.306;6.934;2023-05-22T11:27:54;97967.56;;;47.88;17.69
22964;BME280;11648;49.306;6.934;2023-05-22T11:30:25;97971.53;;;47.66;18.11
22964;BME280;11648;49.306;6.934;2023-05-22T11:32:53;97967.50;;;47.03;18.24
22964;BME280;11648;49.306;6.934;2023-05-22T11:35:21;97964.56;;;47.68;18.08
22964;BME280;11648;49.306;6.934;2023-05-22T11:37:49;97961.41;;;47.28;17.66
22964;BME280;11648;49.306;6.934;2023-05-22T11:40:18;97957.72;;;46.79;17.45
22964;BME280;11648;49.306;6.934;2023-05-22T11:42:46;97972.06;;;47.36;17.54
22964;BME280;11648;49.306;6.934;2023-05-22T11:45:13;97982.78;;;45.23;18.68
22964;BME280;11648;49.306;6.934;2023-05-22T11:47:42;97987.97;;;44.40;18.88
22964;BME280;11648;49.306;6.934;2023-05-22T11:50:10;97990.50;;;43.12;20.49
22964;BME280;11648;49.306;6.934;2023-05-22T11:52:40;97997.91;;;41.22;22.19
22964;BME280;11648;49.306;6.934;2023-05-22T11:55:08;98004.63;;;39.32;24.49
22964;BME280;11648;49.306;6.934;2023-05-22T11:57:36;98009.19;;;38.51;26.05
22964;BME280;11648;49.306;6.934;2023-05-22T12:00:05;98007.41;;;37.81;26.15
22964;BME280;11648;49.306;6.934;2023-05-22T12:02:45;97999.69;;;38.60;25.59
22964;BME280;11648;49.306;6.934;2023-05-22T12:05:15;97997.28;;;39.72;23.27
22964;BME280;11648;49.306;6.934;2023-05-22T12:07:42;97991.50;;;39.67;22.68
22964;BME280;11648;49.306;6.934;2023-05-22T12:10:09;97999.19;;;38.84;23.91
22964;BME280;11648;49.306;6.934;2023-05-22T12:12:37;98003.75;;;37.74;25.60
22964;BME280;11648;49.306;6.934;2023-05-22T12:15:05;98006.97;;;36.78;27.46
22964;BME280;11648;49.306;6.934;2023-05-22T12:17:35;98015.53;;;35.73;29.71
22964;BME280;11648;49.306;6.934;2023-05-22T12:20:04;98010.69;;;35.14;29.58
22964;BME280;11648;49.306;6.934;2023-05-22T12:22:30;98018.16;;;34.59;30.03
22964;BME280;11648;49.306;6.934;2023-05-22T12:24:57;98012.25;;;34.78;30.25
22964;BME280;11648;49.306;6.934;2023-05-22T12:27:28;98022.34;;;34.78;31.87
22964;BME280;11648;49.306;6.934;2023-05-22T12:29:58;98018.59;;;35.32;32.28
22964;BME280;11648;49.306;6.934;2023-05-22T12:32:27;98024.31;;;36.20;30.50
22964;BME280;11648;49.306;6.934;2023-05-22T12:34:56;98019.00;;;36.48;29.47
22964;BME280;11648;49.306;6.934;2023-05-22T12:37:24;98025.25;;;36.12;29.75
22964;BME280;11648;49.306;6.934;2023-05-22T12:39:55;98038.00;;;35.68;31.35
22964;BME280;11648;49.306;6.934;2023-05-22T12:42:26;98025.34;;;35.22;30.51
22964;BME280;11648;49.306;6.934;2023-05-22T12:44:54;98032.56;;;34.45;31.43
22964;BME280;11648;49.306;6.934;2023-05-22T12:47:21;98043.28;;;33.75;33.69
22964;BME280;11648;49.306;6.934;2023-05-22T12:49:49;98050.59;;;33.18;34.47
22964;BME280;11648;49.306;6.934;2023-05-22T12:52:16;98043.41;;;33.17;35.26
22964;BME280;11648;49.306;6.934;2023-05-22T12:54:43;98052.03;;;32.88;34.90
22964;BME280;11648;49.306;6.934;2023-05-22T12:57:10;98040.19;;;33.13;34.11
22964;BME280;11648;49.306;6.934;2023-05-22T12:59:37;98043.09;;;33.12;33.77
22964;BME280;11648;49.306;6.934;2023-05-22T13:02:04;98039.28;;;32.97;33.68
22964;BME280;11648;49.306;6.934;2023-05-22T13:04:31;98048.06;;;32.74;34.45
22964;BME280;11648;49.306;6.934;2023-05-22T13:06:58;98046.00;;;32.60;35.78
22964;BME280;11648;49.306;6.934;2023-05-22T13:09:24;98045.44;;;32.57;35.54
22964;BME280;11648;49.306;6.934;2023-05-22T13:11:51;98046.78;;;32.19;35.30
22964;BME280;11648;49.306;6.934;2023-05-22T13:14:18;98050.78;;;32.41;34.92
22964;BME280;11648;49.306;6.934;2023-05-22T13:16:45;98040.72;;;32.67;34.93
22964;BME280;11648;49.306;6.934;2023-05-22T13:19:12;98033.72;;;33.14;34.70
22964;BME280;11648;49.306;6.934;2023-05-22T13:21:39;98030.31;;;33.45;33.25
22964;BME280;11648;49.306;6.934;2023-05-22T13:24:05;98024.84;;;33.77;33.97
22964;BME280;11648;49.306;6.934;2023-05-22T13:26:32;98016.34;;;33.72;33.36
22964;BME280;11648;49.306;6.934;2023-05-22T13:28:59;98021.94;;;33.95;33.56
22964;BME280;11648;49.306;6.934;2023-05-22T13:31:26;98026.16;;;34.21;33.36